Townsend, Wisconsin
Current Conditions -  °F | °C
As of 6:55 AM on Friday 31 Oct 2014 (Local Time) from KAIG Reporting Station
Overcast Overcast  
Wind Chill: 15°   Ceiling: 2800
Heat Index: 28°   Visibility: 10mi
Dew Point: 22°   Wind: 17mph
Humidity: 80%   Direction: 360°N
Pressure: 30.25"   Gusts: 30mph
Location:  45.33°N, 88.59°W
Report Text: KAIG 311155Z AUTO 36015G26KT 10SM OVC028 M02/M05 A3025 RMK AO2 60001 70001 T10251055 10000 21025
Loading
Personal Weather Stations






























Interactive Weather Map
Tropical Storm Tracking
New forecast layout! Learn more

10-Day Weather Forecast

Advertisements
Track Severe Weather on mobile